Time;durP1;ratioP1;P1;durP2;ratioP2;P2;SDS_P1;SDS_P2;PMS_P1;PMS_P2;Temp;Humidity;BMP_temperature;BMP_pressure;BME280_temperature;BME280_humidity;BME280_pressure;Samples;Min_cycle;Max_cycle;Signal;HPM_P1;HPM_P2
2023/03/24 00:01:22;;;;;;;;;;;;;;;;;;136526;1288;22273;-83
2023/03/24 00:04:39;;;;;;;;;;;;;;;;;;136537;1288;22296;-84
2023/03/24 00:07:47;;;;;;;;;;;;;;;;;;136541;1283;22649;-83
2023/03/24 00:10:54;;;;;;;;;;;;;;;;;;136543;1288;22125;-84
2023/03/24 00:14:00;;;;;;;;;;;;;;;;;;136560;1288;22265;-85
2023/03/24 00:17:02;;;;;;;;;;;;;;;;;;136533;1276;22210;-84
2023/03/24 00:20:12;;;;;;;;;;;;;;;;;;136543;1288;22195;-83
2023/03/24 00:23:14;;;;;;;;;;;;;;;;;;136527;1288;22406;-84
2023/03/24 00:26:17;;;;;;;;;;;;;;;;;;136549;1288;22696;-84
2023/03/24 00:29:20;;;;;;;;;;;;;;;;;;136556;1288;22537;-84
2023/03/24 00:32:37;;;;;;;;;;;;;;;;;;136284;1288;341874;-83
2023/03/24 00:35:47;;;;;;;;;;;;;;;;;;136530;1288;22288;-85
2023/03/24 00:39:01;;;;;;;;;;;;;;;;;;136568;1288;22262;-84
2023/03/24 00:42:13;;;;;;;;;;;;;;;;;;136535;1283;22422;-84
2023/03/24 00:45:16;;;;;;;;;;;;;;;;;;136531;1282;22153;-85
2023/03/24 00:48:23;;;;;;;;;;;;;;;;;;136535;1288;22124;-84
2023/03/24 00:51:25;;;;;;;;;;;;;;;;;;136519;1285;22208;-84
2023/03/24 00:54:29;;;;;;;;;;;;;;;;;;136532;1288;22356;-81
2023/03/24 00:57:33;;;;;;;;;;;;;;;;;;136502;1288;22227;-84
2023/03/24 01:04:10;;;;;;;;;;;;;;;;;;136515;1288;22325;-85
2023/03/24 01:10:52;;;;;;;;;;;;;;;;;;136511;1285;22395;-85
2023/03/24 01:17:45;;;;;;;;;;;;;;;;;;136425;1289;22418;-82
2023/03/24 01:20:49;;;;;;;;;;;;;;;;;;136528;1288;22243;-84
2023/03/24 01:23:51;;;;;;;;;;;;;;;;;;136504;1288;22380;-82
2023/03/24 01:26:56;;;;;;;;;;;;;;;;;;136540;1288;22933;-84
2023/03/24 01:29:58;;;;;;;;;;;;;;;;;;136517;1288;22329;-83
2023/03/24 01:33:07;;;;;;;;;;;;;;;;;;136531;1285;22253;-84
2023/03/24 01:36:10;;;;;;;;;;;;;;;;;;136522;1285;22706;-84
2023/03/24 01:39:12;;;;;;;;;;;;;;;;;;136540;1288;22188;-84
2023/03/24 01:42:15;;;;;;;;;;;;;;;;;;136546;1286;22394;-84
2023/03/24 01:45:20;;;;;;;;;;;;;;;;;;136548;1288;22256;-83
2023/03/24 01:48:24;;;;;;;;;;;;;;;;;;136530;1288;22231;-84
2023/03/24 01:51:33;;;;;;;;;;;;;;;;;;136528;1288;22298;-84
2023/03/24 01:54:40;;;;;;;;;;;;;;;;;;136526;1282;22515;-84
2023/03/24 01:57:49;;;;;;;;;;;;;;;;;;136546;1288;22725;-84
2023/03/24 02:00:53;;;;;;;;;;;;;;;;;;136527;1288;22285;-84
2023/03/24 02:03:55;;;;;;;;;;;;;;;;;;136546;1288;22284;-85
2023/03/24 02:06:58;;;;;;;;;;;;;;;;;;136528;1288;22303;-84
2023/03/24 02:10:00;;;;;;;;;;;;;;;;;;136512;1288;22736;-83
2023/03/24 02:13:05;;;;;;;;;;;;;;;;;;136529;1288;22431;-84
2023/03/24 02:16:08;;;;;;;;;;;;;;;;;;136533;1288;22621;-84
2023/03/24 02:19:13;;;;;;;;;;;;;;;;;;136474;1288;22681;-84
2023/03/24 02:22:16;;;;;;;;;;;;;;;;;;136535;1288;22333;-84
2023/03/24 02:25:18;;;;;;;;;;;;;;;;;;136523;1288;22421;-85
2023/03/24 02:28:21;;;;;;;;;;;;;;;;;;136533;1285;22233;-84
2023/03/24 02:31:27;;;;;;;;;;;;;;;;;;136523;1288;22313;-84
2023/03/24 02:34:40;;;;;;;;;;;;;;;;;;136412;1274;22396;-86
2023/03/24 02:37:44;;;;;;;;;;;;;;;;;;136546;1288;22281;-83
2023/03/24 02:40:57;;;;;;;;;;;;;;;;;;136522;1288;22234;-83
2023/03/24 02:44:05;;;;;;;;;;;;;;;;;;136525;1288;22387;-84
2023/03/24 02:47:13;;;;;;;;;;;;;;;;;;136510;1288;22534;-83
2023/03/24 02:50:19;;;;;;;;;;;;;;;;;;136506;1288;22405;-83
2023/03/24 02:53:35;;;;;;;;;;;;;;;;;;136534;1288;22436;-83
2023/03/24 02:56:38;;;;;;;;;;;;;;;;;;136528;1288;22229;-83
2023/03/24 02:59:40;;;;;;;;;;;;;;;;;;136536;1288;22400;-83
2023/03/24 03:02:46;;;;;;;;;;;;;;;;;;136513;1283;22300;-83
2023/03/24 03:05:52;;;;;;;;;;;;;;;;;;136499;1288;22373;-83
2023/03/24 03:08:54;;;;;;;;;;;;;;;;;;136497;1288;22342;-83
2023/03/24 03:11:57;;;;;;;;;;;;;;;;;;136494;1288;22330;-83
2023/03/24 03:15:12;;;;;;;;;;;;;;;;;;136506;1286;22431;-83
2023/03/24 03:21:46;;;;;;;;;;;;;;;;;;136475;1288;22367;-84
2023/03/24 03:25:33;;;;;;;;;;;;;;;;;;136332;1288;22417;-83
2023/03/24 03:28:37;;;;;;;;;;;;;;;;;;136529;1288;22243;-84
2023/03/24 03:31:40;;;;;;;;;;;;;;;;;;136422;1288;22354;-83
2023/03/24 03:34:43;;;;;;;;;;;;;;;;;;136430;1288;22301;-84
2023/03/24 03:37:50;;;;;;;;;;;;;;;;;;136519;1288;22266;-83
2023/03/24 03:40:58;;;;;;;;;;;;;;;;;;136443;1288;22306;-84
2023/03/24 03:44:12;;;;;;;;;;;;;;;;;;136437;1288;22731;-84
2023/03/24 03:47:17;;;;;;;;;;;;;;;;;;136435;1288;22274;-84
2023/03/24 03:54:01;;;;;;;;;;;;;;;;;;136545;1288;22451;-85
2023/03/24 03:57:03;;;;;;;;;;;;;;;;;;136556;1288;22215;-82
2023/03/24 04:00:14;;;;;;;;;;;;;;;;;;136541;1288;22692;-84
2023/03/24 04:03:21;;;;;;;;;;;;;;;;;;136546;1288;22652;-84
2023/03/24 04:06:25;;;;;;;;;;;;;;;;;;136549;1288;22185;-84
2023/03/24 04:09:29;;;;;;;;;;;;;;;;;;136546;1282;22330;-86
2023/03/24 04:13:02;;;;;;;;;;;;;;;;;;;;;
2023/03/24 04:16:20;;;;;;;;;;;;;;;;;;135749;1295;22440;-85
2023/03/24 04:19:37;;;;;;;;;;;;;;;;;;135490;1295;22426;-85
2023/03/24 04:22:39;;;;;;;;;;;;;;;;;;135991;1294;22528;-82
2023/03/24 04:25:43;;;;;;;;;;;;;;;;;;135976;1295;22782;-85
2023/03/24 04:28:46;;;;;;;;;;;;;;;;;;135957;1295;22455;-84
2023/03/24 04:31:52;;;;;;;;;;;;;;;;;;135950;1295;22307;-82
2023/03/24 04:34:54;;;;;;;;;;;;;;;;;;135935;1295;22422;-84
2023/03/24 04:37:57;;;;;;;;;;;;;;;;;;135919;1295;22354;-84
2023/03/24 04:41:00;;;;;;;;;;;;;;;;;;135930;1295;23038;-77
2023/03/24 04:44:02;;;;;;;;;;;;;;;;;;135921;1295;22431;-82
2023/03/24 04:47:06;;;;;;;;;;;;;;;;;;135988;1295;22709;-83
2023/03/24 04:50:10;;;;;;;;;;;;;;;;;;135919;1295;22229;-83
2023/03/24 04:53:12;;;;;;;;;;;;;;;;;;136089;1289;22431;-83
2023/03/24 04:56:15;;;;;;;;;;;;;;;;;;136484;1288;22336;-83
2023/03/24 04:59:17;;;;;;;;;;;;;;;;;;136486;1285;22299;-82
2023/03/24 05:02:20;;;;;;;;;;;;;;;;;;136475;1288;22259;-80
2023/03/24 05:05:22;;;;;;;;;;;;;;;;;;136500;1289;22729;-82
2023/03/24 05:08:25;;;;;;;;;;;;;;;;;;136477;1288;22235;-82
2023/03/24 05:11:27;;;;;;;;;;;;;;;;;;136474;1288;22301;-83
2023/03/24 05:14:30;;;;;;;;;;;;;;;;;;136448;1289;22319;-83
2023/03/24 05:17:32;;;;;;;;;;;;;;;;;;136461;1288;22276;-84
2023/03/24 05:20:41;;;;;;;;;;;;;;;;;;136477;1288;22176;-83
2023/03/24 05:23:55;;;;;;;;;;;;;;;;;;136479;1288;22373;-84
2023/03/24 05:26:57;;;;;;;;;;;;;;;;;;136482;1289;22280;-83
2023/03/24 05:30:00;;;;;;;;;;;;;;;;;;136480;1288;22275;-84
2023/03/24 05:33:02;;;;;;;;;;;;;;;;;;136497;1288;22345;-84
2023/03/24 05:36:04;;;;;;;;;;;;;;;;;;136496;1288;22308;-84
2023/03/24 05:39:07;;;;;;;;;;;;;;;;;;136508;1288;22194;-86
2023/03/24 05:42:12;;;;;;;;;;;;;;;;;;136490;1288;22375;-84
2023/03/24 05:45:14;;;;;;;;;;;;;;;;;;136523;1288;22303;-84
2023/03/24 05:48:17;;;;;;;;;;;;;;;;;;136505;1288;22304;-84
2023/03/24 05:51:19;;;;;;;;;;;;;;;;;;136502;1288;22277;-85
2023/03/24 05:54:22;;;;;;;;;;;;;;;;;;136519;1289;22439;-83
2023/03/24 05:57:25;;;;;;;;;;;;;;;;;;136477;1288;22230;-87
2023/03/24 06:00:29;;;;;;;;;;;;;;;;;;136445;1288;22906;-85
2023/03/24 06:03:44;;;;;;;;;;;;;;;;;;136385;1288;22355;-86
2023/03/24 06:06:47;;;;;;;;;;;;;;;;;;136482;1288;22408;-86
2023/03/24 06:09:53;;;;;;;;;;;;;;;;;;136474;1285;22219;-88
2023/03/24 06:12:59;;;;;;;;;;;;;;;;;;136497;1288;22205;-86
2023/03/24 06:16:02;;;;;;;;;;;;;;;;;;136492;1289;22370;-84
2023/03/24 06:19:05;;;;;;;;;;;;;;;;;;136442;1288;22259;-84
2023/03/24 06:22:10;;;;;;;;;;;;;;;;;;136445;1288;22340;-86
2023/03/24 06:25:14;;;;;;;;;;;;;;;;;;136456;1289;22445;-85
2023/03/24 06:28:21;;;;;;;;;;;;;;;;;;136447;1288;22879;-85
2023/03/24 06:31:26;;;;;;;;;;;;;;;;;;136331;1289;22343;-85
2023/03/24 06:34:34;;;;;;;;;;;;;;;;;;136487;1289;22423;-85
2023/03/24 06:37:46;;;;;;;;;;;;;;;;;;136394;1289;22305;-84
2023/03/24 06:44:12;;;;;;;;;;;;;;;;;;136498;1286;22390;-86
2023/03/24 06:47:21;;;;;;;;;;;;;;;;;;136376;1288;22389;-86
2023/03/24 06:53:59;;;;;;;;;;;;;;;;;;136475;1289;22396;-85
2023/03/24 06:57:05;;;;;;;;;;;;;;;;;;136497;1288;23035;-87
2023/03/24 07:00:19;;;;;;;;;;;;;;;;;;136471;1288;22266;-86
2023/03/24 07:03:23;;;;;;;;;;;;;;;;;;136467;1288;22212;-85
2023/03/24 07:06:28;;;;;;;;;;;;;;;;;;136484;1288;22391;-84
2023/03/24 07:09:31;;;;;;;;;;;;;;;;;;136489;1288;22280;-85
2023/03/24 07:12:34;;;;;;;;;;;;;;;;;;136496;1288;22470;-86
2023/03/24 07:15:36;;;;;;;;;;;;;;;;;;136481;1288;22230;-86
2023/03/24 07:18:43;;;;;;;;;;;;;;;;;;136484;1288;22488;-86
2023/03/24 07:21:52;;;;;;;;;;;;;;;;;;136500;1288;22213;-86
2023/03/24 07:25:00;;;;;;;;;;;;;;;;;;136414;1288;22812;-86
2023/03/24 07:28:03;;;;;;;;;;;;;;;;;;136504;1288;22260;-85
2023/03/24 07:31:09;;;;;;;;;;;;;;;;;;136496;1288;22301;-85
2023/03/24 07:34:14;;;;;;;;;;;;;;;;;;136526;1288;22225;-86
2023/03/24 07:37:28;;;;;;;;;;;;;;;;;;136501;1288;22216;-86
2023/03/24 07:40:33;;;;;;;;;;;;;;;;;;136522;1288;22240;-86
2023/03/24 07:43:41;;;;;;;;;;;;;;;;;;136523;1288;22403;-86
2023/03/24 07:46:43;;;;;;;;;;;;;;;;;;136525;1288;22238;-86
2023/03/24 07:49:47;;;;;;;;;;;;;;;;;;136522;1288;22459;-87
2023/03/24 07:52:49;;;;;;;;;;;;;;;;;;136504;1288;22452;-85
2023/03/24 07:55:52;;;;;;;;;;;;;;;;;;136512;1288;22267;-86
2023/03/24 07:59:00;;;;;;;;;;;;;;;;;;136487;1288;22436;-86
2023/03/24 08:02:04;;;;;;;;;;;;;;;;;;136533;1288;22296;-84
2023/03/24 08:05:19;;;;;;;;;;;;;;;;;;136511;1288;22859;-87
2023/03/24 08:08:22;;;;;;;;;;;;;;;;;;136525;1288;22204;-86
2023/03/24 08:11:25;;;;;;;;;;;;;;;;;;136528;1288;22859;-85
2023/03/24 08:14:27;;;;;;;;;;;;;;;;;;136545;1288;22239;-84
2023/03/24 08:17:33;;;;;;;;;;;;;;;;;;136544;1288;22665;-84
2023/03/24 08:20:39;;;;;;;;;;;;;;;;;;136552;1288;22833;-87
2023/03/24 08:23:42;;;;;;;;;;;;;;;;;;136533;1288;22401;-85
2023/03/24 08:26:49;;;;;;;;;;;;;;;;;;136540;1277;22198;-86
2023/03/24 08:29:52;;;;;;;;;;;;;;;;;;136441;1288;22401;-86
2023/03/24 08:32:59;;;;;;;;;;;;;;;;;;136537;1288;22296;-85
2023/03/24 08:36:04;;;;;;;;;;;;;;;;;;136551;1288;22283;-85
2023/03/24 08:39:19;;;;;;;;;;;;;;;;;;136501;1289;22281;-85
2023/03/24 08:42:21;;;;;;;;;;;;;;;;;;136513;1289;22442;-84
2023/03/24 08:45:26;;;;;;;;;;;;;;;;;;136518;1288;22299;-85
2023/03/24 08:48:28;;;;;;;;;;;;;;;;;;136548;1289;22283;-84
2023/03/24 08:51:31;;;;;;;;;;;;;;;;;;136525;1288;22836;-83
2023/03/24 08:54:36;;;;;;;;;;;;;;;;;;136515;1289;22406;-87
2023/03/24 08:57:41;;;;;;;;;;;;;;;;;;136498;1288;22297;-86
2023/03/24 09:00:44;;;;;;;;;;;;;;;;;;136503;1289;22431;-84
2023/03/24 09:03:51;;;;;;;;;;;;;;;;;;136489;1288;22186;-84
2023/03/24 09:06:58;;;;;;;;;;;;;;;;;;136479;1289;22215;-85
2023/03/24 09:10:01;;;;;;;;;;;;;;;;;;136504;1288;22627;-83
2023/03/24 09:13:04;;;;;;;;;;;;;;;;;;136520;1282;22359;-83
2023/03/24 09:16:08;;;;;;;;;;;;;;;;;;136533;1288;22286;-86
2023/03/24 09:19:13;;;;;;;;;;;;;;;;;;136552;1289;22733;-84
2023/03/24 09:22:18;;;;;;;;;;;;;;;;;;136522;1289;22259;-86
2023/03/24 09:25:22;;;;;;;;;;;;;;;;;;136526;1288;22438;-84
2023/03/24 09:28:26;;;;;;;;;;;;;;;;;;136520;1289;22288;-85
2023/03/24 09:31:32;;;;;;;;;;;;;;;;;;136526;1283;22377;-85
2023/03/24 09:34:45;;;;;;;;;;;;;;;;;;136526;1289;22316;-85
2023/03/24 09:37:49;;;;;;;;;;;;;;;;;;136528;1288;22411;-86
2023/03/24 09:40:54;;;;;;;;;;;;;;;;;;136511;1289;22719;-86
2023/03/24 09:43:57;;;;;;;;;;;;;;;;;;136474;1283;22387;-86
2023/03/24 09:47:00;;;;;;;;;;;;;;;;;;136542;1288;22183;-84
2023/03/24 09:50:03;;;;;;;;;;;;;;;;;;136446;1289;22646;-85
2023/03/24 09:53:05;;;;;;;;;;;;;;;;;;136435;1289;22444;-83
2023/03/24 09:56:08;;;;;;;;;;;;;;;;;;136553;1288;22244;-84
2023/03/24 09:59:11;;;;;;;;;;;;;;;;;;136521;1288;22662;-83
2023/03/24 10:02:15;;;;;;;;;;;;;;;;;;136536;1288;22651;-84
2023/03/24 10:05:25;;;;;;;;;;;;;;;;;;136492;1289;22300;-86
2023/03/24 10:08:30;;;;;;;;;;;;;;;;;;136503;1288;22243;-84
2023/03/24 10:11:34;;;;;;;;;;;;;;;;;;136536;1289;22749;-84
2023/03/24 10:14:40;;;;;;;;;;;;;;;;;;136523;1289;22368;-84
2023/03/24 10:17:46;;;;;;;;;;;;;;;;;;136559;1289;22756;-84
2023/03/24 10:20:51;;;;;;;;;;;;;;;;;;136560;1288;22377;-84
2023/03/24 10:23:58;;;;;;;;;;;;;;;;;;136547;1288;22439;-85
2023/03/24 10:27:05;;;;;;;;;;;;;;;;;;136542;1288;22381;-82
2023/03/24 10:30:08;;;;;;;;;;;;;;;;;;136518;1288;22311;-85
2023/03/24 10:33:11;;;;;;;;;;;;;;;;;;136521;1288;22259;-83
2023/03/24 10:36:14;;;;;;;;;;;;;;;;;;136525;1288;22331;-84
2023/03/24 10:39:16;;;;;;;;;;;;;;;;;;136477;1288;22201;-81
2023/03/24 10:42:20;;;;;;;;;;;;;;;;;;136435;1288;22369;-82
2023/03/24 10:45:23;;;;;;;;;;;;;;;;;;136465;1288;22166;-79
2023/03/24 10:48:26;;;;;;;;;;;;;;;;;;136469;1288;22283;-82
2023/03/24 10:51:30;;;;;;;;;;;;;;;;;;136492;1288;22229;-85
2023/03/24 10:54:35;;;;;;;;;;;;;;;;;;136503;1288;22380;-83
2023/03/24 10:57:39;;;;;;;;;;;;;;;;;;136523;1288;22345;-84
2023/03/24 11:00:41;;;;;;;;;;;;;;;;;;136495;1288;22685;-84
2023/03/24 11:03:48;;;;;;;;;;;;;;;;;;136472;1285;22278;-84
2023/03/24 11:06:50;;;;;;;;;;;;;;;;;;136507;1289;22428;-84
2023/03/24 11:09:54;;;;;;;;;;;;;;;;;;136457;1288;22194;-84
2023/03/24 11:12:57;;;;;;;;;;;;;;;;;;136506;1288;22392;-82
2023/03/24 11:16:00;;;;;;;;;;;;;;;;;;136495;1289;22193;-84
2023/03/24 11:19:04;;;;;;;;;;;;;;;;;;136539;1289;22291;-85
2023/03/24 11:22:07;;;;;;;;;;;;;;;;;;136529;1289;22320;-84
2023/03/24 11:25:10;;;;;;;;;;;;;;;;;;136405;1289;22565;-82
2023/03/24 11:28:12;;;;;;;;;;;;;;;;;;136529;1288;22810;-84
2023/03/24 11:31:17;;;;;;;;;;;;;;;;;;136547;1288;22307;-83
2023/03/24 11:34:24;;;;;;;;;;;;;;;;;;136515;1288;22369;-84
2023/03/24 11:37:27;;;;;;;;;;;;;;;;;;136550;1288;22292;-86
2023/03/24 11:40:32;;;;;;;;;;;;;;;;;;136533;1288;22518;-84
2023/03/24 11:43:40;;;;;;;;;;;;;;;;;;136509;1288;22396;-86
2023/03/24 11:46:43;;;;;;;;;;;;;;;;;;136535;1288;22339;-84
2023/03/24 11:49:45;;;;;;;;;;;;;;;;;;136534;1288;22329;-85
2023/03/24 11:52:48;;;;;;;;;;;;;;;;;;136532;1288;22426;-83
2023/03/24 11:55:54;;;;;;;;;;;;;;;;;;136538;1288;22732;-83
2023/03/24 11:58:57;;;;;;;;;;;;;;;;;;136546;1288;22774;-83
2023/03/24 12:01:59;;;;;;;;;;;;;;;;;;136534;1288;22196;-83
2023/03/24 12:05:05;;;;;;;;;;;;;;;;;;136499;1283;22328;-83
2023/03/24 12:08:07;;;;;;;;;;;;;;;;;;136522;1289;22316;-84
2023/03/24 12:11:12;;;;;;;;;;;;;;;;;;136518;1289;22422;-85
2023/03/24 12:14:19;;;;;;;;;;;;;;;;;;136520;1288;22289;-83
2023/03/24 12:17:21;;;;;;;;;;;;;;;;;;136477;1286;22640;-83
2023/03/24 12:20:24;;;;;;;;;;;;;;;;;;136509;1288;22327;-84
2023/03/24 12:23:28;;;;;;;;;;;;;;;;;;136447;1289;22375;-83
2023/03/24 12:26:31;;;;;;;;;;;;;;;;;;136496;1289;22228;-80
2023/03/24 12:29:37;;;;;;;;;;;;;;;;;;136497;1289;22323;-82
2023/03/24 12:32:49;;;;;;;;;;;;;;;;;;136369;1288;197756;-83
2023/03/24 12:35:54;;;;;;;;;;;;;;;;;;136530;1288;23078;-83
2023/03/24 12:39:01;;;;;;;;;;;;;;;;;;136496;1288;22467;-86
2023/03/24 12:42:11;;;;;;;;;;;;;;;;;;136505;1289;22428;-85
2023/03/24 12:45:14;;;;;;;;;;;;;;;;;;136480;1288;22163;-83
2023/03/24 12:48:16;;;;;;;;;;;;;;;;;;136479;1288;22758;-83
2023/03/24 12:51:19;;;;;;;;;;;;;;;;;;136493;1288;22267;-82
2023/03/24 12:54:22;;;;;;;;;;;;;;;;;;136511;1288;22507;-83
2023/03/24 12:57:26;;;;;;;;;;;;;;;;;;136509;1289;22364;-83
2023/03/24 13:00:31;;;;;;;;;;;;;;;;;;136506;1288;22282;-83
2023/03/24 13:03:37;;;;;;;;;;;;;;;;;;136158;1289;22451;-82
2023/03/24 13:06:48;;;;;;;;;;;;;;;;;;136467;1288;22287;-83
2023/03/24 13:09:52;;;;;;;;;;;;;;;;;;136473;1288;22224;-84
2023/03/24 13:12:57;;;;;;;;;;;;;;;;;;136496;1283;22428;-83
2023/03/24 13:16:03;;;;;;;;;;;;;;;;;;136522;1289;22286;-83
2023/03/24 13:19:10;;;;;;;;;;;;;;;;;;136479;1289;22305;-87
2023/03/24 13:22:12;;;;;;;;;;;;;;;;;;136434;1289;22318;-84
2023/03/24 13:25:15;;;;;;;;;;;;;;;;;;136423;1289;22372;-83
2023/03/24 13:28:20;;;;;;;;;;;;;;;;;;136376;1289;22405;-82
2023/03/24 13:31:23;;;;;;;;;;;;;;;;;;136441;1289;22185;-83
2023/03/24 13:34:33;;;;;;;;;;;;;;;;;;136418;1288;22662;-84
2023/03/24 13:37:40;;;;;;;;;;;;;;;;;;136478;1289;22296;-83
2023/03/24 13:40:50;;;;;;;;;;;;;;;;;;136219;1289;22443;-82
2023/03/24 13:43:54;;;;;;;;;;;;;;;;;;136457;1289;22460;-82
2023/03/24 13:47:08;;;;;;;;;;;;;;;;;;136495;1289;22390;-83
2023/03/24 13:50:11;;;;;;;;;;;;;;;;;;136476;1289;22690;-83
2023/03/24 13:53:21;;;;;;;;;;;;;;;;;;136495;1289;22407;-81
2023/03/24 13:56:25;;;;;;;;;;;;;;;;;;136497;1288;22319;-83
2023/03/24 13:59:28;;;;;;;;;;;;;;;;;;136477;1289;22337;-82
2023/03/24 14:02:31;;;;;;;;;;;;;;;;;;136511;1288;22286;-83
2023/03/24 14:05:36;;;;;;;;;;;;;;;;;;136480;1286;22234;-82
2023/03/24 14:08:39;;;;;;;;;;;;;;;;;;136473;1288;22282;-83
2023/03/24 14:11:41;;;;;;;;;;;;;;;;;;136448;1288;22289;-82
2023/03/24 14:14:47;;;;;;;;;;;;;;;;;;136469;1288;22255;-83
2023/03/24 14:17:50;;;;;;;;;;;;;;;;;;136471;1288;22298;-84
2023/03/24 14:20:53;;;;;;;;;;;;;;;;;;136432;1288;22354;-82
2023/03/24 14:23:58;;;;;;;;;;;;;;;;;;136377;1289;22380;-82
2023/03/24 14:27:00;;;;;;;;;;;;;;;;;;136405;1288;22200;-83
2023/03/24 14:30:05;;;;;;;;;;;;;;;;;;136434;1288;22240;-82
2023/03/24 14:33:07;;;;;;;;;;;;;;;;;;136426;1288;22237;-81
2023/03/24 14:36:13;;;;;;;;;;;;;;;;;;136469;1288;22298;-81
2023/03/24 14:39:22;;;;;;;;;;;;;;;;;;136464;1284;22213;-83
2023/03/24 14:42:30;;;;;;;;;;;;;;;;;;136494;1288;22300;-82
2023/03/24 14:45:35;;;;;;;;;;;;;;;;;;136475;1288;22550;-83
2023/03/24 14:48:38;;;;;;;;;;;;;;;;;;136509;1289;22703;-83
2023/03/24 14:51:40;;;;;;;;;;;;;;;;;;136508;1288;22305;-82
2023/03/24 14:54:44;;;;;;;;;;;;;;;;;;136495;1288;22955;-82
2023/03/24 14:57:47;;;;;;;;;;;;;;;;;;136519;1289;22188;-83
2023/03/24 15:00:50;;;;;;;;;;;;;;;;;;136504;1288;22241;-83
2023/03/24 15:03:52;;;;;;;;;;;;;;;;;;136515;1288;22796;-83
2023/03/24 15:06:55;;;;;;;;;;;;;;;;;;136539;1288;22214;-83
2023/03/24 15:09:57;;;;;;;;;;;;;;;;;;136523;1288;22192;-83
2023/03/24 15:13:00;;;;;;;;;;;;;;;;;;136524;1288;22280;-84
2023/03/24 15:16:02;;;;;;;;;;;;;;;;;;136516;1273;22157;-84
2023/03/24 15:20:55;;;;;;;;;;;;;;;;;;133334;1308;547707;-83
2023/03/24 15:23:59;;;;;;;;;;;;;;;;;;136306;1279;22567;-83
2023/03/24 15:27:01;;;;;;;;;;;;;;;;;;136169;1279;22537;-84
2023/03/24 15:30:04;;;;;;;;;;;;;;;;;;135894;1279;22550;-83
2023/03/24 15:33:12;;;;;;;;;;;;;;;;;;135606;1274;1203766;-83
2023/03/24 15:36:14;;;;;;;;;;;;;;;;;;136572;1277;22518;-82
2023/03/24 15:39:16;;;;;;;;;;;;;;;;;;137157;1277;22315;-82
2023/03/24 15:42:17;;;;;;;;;;;;;;;;;;137107;1277;22328;-83
2023/03/24 15:45:19;;;;;;;;;;;;;;;;;;136954;1276;23081;-82
2023/03/24 15:48:21;;;;;;;;;;;;;;;;;;137157;1262;22976;-83
2023/03/24 15:51:22;;;;;;;;;;;;;;;;;;137200;1277;22543;-83
2023/03/24 15:54:26;;;;;;;;;;;;;;;;;;137241;1277;22343;-83
2023/03/24 15:57:27;;;;;;;;;;;;;;;;;;137137;1277;22554;-83
2023/03/24 16:00:31;;;;;;;;;;;;;;;;;;136720;1277;22603;-86
2023/03/24 16:03:33;;;;;;;;;;;;;;;;;;136854;1277;22540;-81
2023/03/24 16:06:38;;;;;;;;;;;;;;;;;;136817;1277;22623;-87
2023/03/24 16:09:40;;;;;;;;;;;;;;;;;;136605;1277;22506;-85
2023/03/24 16:12:41;;;;;;;;;;;;;;;;;;137012;1277;22575;-81
2023/03/24 16:15:42;;;;;;;;;;;;;;;;;;137019;1277;22586;-81
2023/03/24 16:18:43;;;;;;;;;;;;;;;;;;136440;1277;22528;-84
2023/03/24 16:21:44;;;;;;;;;;;;;;;;;;136969;1277;22517;-82
2023/03/24 16:24:48;;;;;;;;;;;;;;;;;;136886;1277;22946;-82
2023/03/24 16:27:50;;;;;;;;;;;;;;;;;;136944;1277;23100;-82
2023/03/24 16:31:00;;;;;;;;;;;;;;;;;;137069;1277;22585;-83
2023/03/24 16:34:19;;;;;;;;;;;;;;;;;;137029;1277;22508;-83
2023/03/24 16:37:24;;;;;;;;;;;;;;;;;;136884;1277;22951;-82
2023/03/24 16:40:28;;;;;;;;;;;;;;;;;;136789;1277;23051;-82
2023/03/24 16:43:32;;;;;;;;;;;;;;;;;;137170;1277;22859;-82
2023/03/24 16:46:33;;;;;;;;;;;;;;;;;;136842;1277;22514;-83
2023/03/24 16:49:36;;;;;;;;;;;;;;;;;;136740;1277;22513;-82
2023/03/24 16:52:40;;;;;;;;;;;;;;;;;;136883;1277;22510;-81
2023/03/24 16:55:43;;;;;;;;;;;;;;;;;;136725;1277;22533;-82
2023/03/24 16:58:47;;;;;;;;;;;;;;;;;;136838;1277;22498;-82
2023/03/24 17:01:48;;;;;;;;;;;;;;;;;;137095;1277;22533;-81
2023/03/24 17:04:51;;;;;;;;;;;;;;;;;;136824;1277;22523;-82
2023/03/24 17:07:55;;;;;;;;;;;;;;;;;;136846;1277;22654;-85
2023/03/24 17:10:56;;;;;;;;;;;;;;;;;;136668;1277;22531;-81
2023/03/24 17:14:03;;;;;;;;;;;;;;;;;;136673;1277;22483;-82
2023/03/24 17:17:08;;;;;;;;;;;;;;;;;;136889;1271;22542;-82
2023/03/24 17:20:10;;;;;;;;;;;;;;;;;;136762;1277;22549;-81
2023/03/24 17:23:11;;;;;;;;;;;;;;;;;;135840;1277;22731;-81
2023/03/24 17:26:12;;;;;;;;;;;;;;;;;;135830;1277;22543;-82
2023/03/24 17:29:14;;;;;;;;;;;;;;;;;;135578;1277;22855;-82
2023/03/24 17:32:15;;;;;;;;;;;;;;;;;;136684;1277;22866;-81
2023/03/24 17:35:16;;;;;;;;;;;;;;;;;;137150;1277;22401;-84
2023/03/24 17:38:17;;;;;;;;;;;;;;;;;;137125;1277;22508;-81
2023/03/24 17:41:18;;;;;;;;;;;;;;;;;;136865;1277;22497;-82
2023/03/24 17:44:20;;;;;;;;;;;;;;;;;;136931;1277;22514;-81
2023/03/24 17:47:21;;;;;;;;;;;;;;;;;;136932;1277;22535;-81
2023/03/24 17:50:24;;;;;;;;;;;;;;;;;;136853;1277;22639;-83
2023/03/24 17:53:27;;;;;;;;;;;;;;;;;;136912;1277;22507;-82
2023/03/24 17:56:28;;;;;;;;;;;;;;;;;;137135;1277;22966;-80
2023/03/24 17:59:31;;;;;;;;;;;;;;;;;;137150;1277;22721;-79
2023/03/24 18:02:33;;;;;;;;;;;;;;;;;;137129;1277;22636;-81
2023/03/24 18:05:34;;;;;;;;;;;;;;;;;;136545;1277;22535;-82
2023/03/24 18:08:35;;;;;;;;;;;;;;;;;;136930;1271;23371;-82
2023/03/24 18:11:39;;;;;;;;;;;;;;;;;;136965;1277;22495;-81
2023/03/24 18:14:43;;;;;;;;;;;;;;;;;;136684;1277;22551;-81
2023/03/24 18:17:48;;;;;;;;;;;;;;;;;;136248;1277;22521;-81
2023/03/24 18:20:49;;;;;;;;;;;;;;;;;;136187;1277;22641;-82
2023/03/24 18:23:51;;;;;;;;;;;;;;;;;;135962;1277;22525;-81
2023/03/24 18:26:57;;;;;;;;;;;;;;;;;;136055;1277;22602;-81
2023/03/24 18:29:59;;;;;;;;;;;;;;;;;;136350;1277;22498;-82
2023/03/24 18:33:00;;;;;;;;;;;;;;;;;;136964;1271;22511;-82
2023/03/24 18:36:06;;;;;;;;;;;;;;;;;;136972;1277;22550;-81
2023/03/24 18:39:08;;;;;;;;;;;;;;;;;;136433;1277;22933;-82
2023/03/24 18:42:09;;;;;;;;;;;;;;;;;;136948;1277;22504;-82
2023/03/24 18:45:16;;;;;;;;;;;;;;;;;;136975;1277;22605;-81
2023/03/24 18:48:17;;;;;;;;;;;;;;;;;;137038;1277;22504;-81
2023/03/24 18:51:21;;;;;;;;;;;;;;;;;;136847;1277;22579;-83
2023/03/24 18:54:23;;;;;;;;;;;;;;;;;;136132;1277;22481;-81
2023/03/24 18:57:24;;;;;;;;;;;;;;;;;;137238;1274;22581;-83
2023/03/24 19:00:25;;;;;;;;;;;;;;;;;;136612;1274;22536;-82
2023/03/24 19:03:27;;;;;;;;;;;;;;;;;;137408;1274;22963;-83
2023/03/24 19:06:30;;;;;;;;;;;;;;;;;;137324;1274;22519;-83
2023/03/24 19:09:31;;;;;;;;;;;;;;;;;;137370;1274;22572;-83
2023/03/24 19:12:32;;;;;;;;;;;;;;;;;;137390;1274;22776;-83
2023/03/24 19:15:34;;;;;;;;;;;;;;;;;;137397;1274;22386;-81
2023/03/24 19:18:35;;;;;;;;;;;;;;;;;;137394;1274;22401;-82
2023/03/24 19:21:36;;;;;;;;;;;;;;;;;;137326;1274;22535;-83
2023/03/24 19:24:37;;;;;;;;;;;;;;;;;;137356;1274;22508;-83
2023/03/24 19:27:38;;;;;;;;;;;;;;;;;;137256;1274;23103;-82
2023/03/24 19:30:39;;;;;;;;;;;;;;;;;;137412;1270;22750;-83
2023/03/24 19:33:41;;;;;;;;;;;;;;;;;;137404;1274;22505;-82
2023/03/24 19:36:43;;;;;;;;;;;;;;;;;;137377;1274;22933;-84
2023/03/24 19:39:44;;;;;;;;;;;;;;;;;;137339;1274;22530;-83
2023/03/24 19:42:45;;;;;;;;;;;;;;;;;;137313;1274;22590;-83
2023/03/24 19:45:46;;;;;;;;;;;;;;;;;;137459;1274;22352;-83
2023/03/24 19:48:47;;;;;;;;;;;;;;;;;;137396;1274;22401;-83
2023/03/24 19:51:49;;;;;;;;;;;;;;;;;;137323;1274;22311;-82
2023/03/24 19:54:51;;;;;;;;;;;;;;;;;;137333;1274;22794;-82
2023/03/24 19:57:52;;;;;;;;;;;;;;;;;;137339;1274;22379;-83
2023/03/24 20:00:53;;;;;;;;;;;;;;;;;;137363;1274;22327;-83
2023/03/24 20:03:54;;;;;;;;;;;;;;;;;;137368;1270;22566;-84
2023/03/24 20:06:57;;;;;;;;;;;;;;;;;;137364;1274;22480;-84
2023/03/24 20:09:58;;;;;;;;;;;;;;;;;;137341;1274;22500;-83
2023/03/24 20:12:59;;;;;;;;;;;;;;;;;;137373;1274;23100;-84
2023/03/24 20:16:00;;;;;;;;;;;;;;;;;;137336;1274;23063;-83
2023/03/24 20:19:01;;;;;;;;;;;;;;;;;;137355;1274;22390;-82
2023/03/24 20:22:02;;;;;;;;;;;;;;;;;;137328;1270;22322;-82
2023/03/24 20:25:03;;;;;;;;;;;;;;;;;;137339;1274;22342;-82
2023/03/24 20:28:05;;;;;;;;;;;;;;;;;;137369;1274;22337;-82
2023/03/24 20:31:06;;;;;;;;;;;;;;;;;;137367;1274;22292;-83
2023/03/24 20:34:07;;;;;;;;;;;;;;;;;;137393;1274;22513;-83
2023/03/24 20:37:09;;;;;;;;;;;;;;;;;;137373;1274;22355;-83
2023/03/24 20:40:10;;;;;;;;;;;;;;;;;;137343;1274;22286;-82
2023/03/24 20:43:11;;;;;;;;;;;;;;;;;;137338;1274;22536;-84
2023/03/24 20:46:13;;;;;;;;;;;;;;;;;;137406;1274;22336;-83
2023/03/24 20:49:15;;;;;;;;;;;;;;;;;;137402;1274;22389;-83
2023/03/24 20:52:19;;;;;;;;;;;;;;;;;;137306;1274;22538;-84
2023/03/24 20:55:20;;;;;;;;;;;;;;;;;;137230;1274;22523;-81
2023/03/24 20:58:22;;;;;;;;;;;;;;;;;;137425;1274;22284;-84
2023/03/24 21:01:23;;;;;;;;;;;;;;;;;;137406;1274;22353;-84
2023/03/24 21:04:24;;;;;;;;;;;;;;;;;;137213;1274;22507;-81